Terminal Aerodrome Forecast
Issued by NWS Tampa Bay Area, FL

Home | Current Version | Previous Version | Text Only | Print | Product List | Glossary On
Versions: 1 2 3 4 5 6 7 8 9 10 11 12 13 14 15 16 17 18 19 20 21 22 23 24 25
000
FTUS42 KTBW 192335
TAFTPA
TAF
KTPA 192335Z 2000/2024 28008KT P6SM FEW050 SCT250
     FM200200 01004KT P6SM SCT250
     FM201400 09004KT P6SM FEW020 SCT200
     FM201800 24007KT P6SM VCTS FEW025CB BKN200
     FM202000 18007KT P6SM VCTS SCT025CB BKN050=

USA.gov is the U.S. government's official web portal to all federal, state and local government web resources and services.